createdAt,value
2023-02-12T00:01:10.822Z,13.07
2023-02-12T00:03:39.597Z,12.48
2023-02-12T00:06:10.331Z,12.80
2023-02-12T00:08:39.141Z,12.88
2023-02-12T00:11:12.442Z,12.48
2023-02-12T00:13:41.283Z,11.13
2023-02-12T00:16:10.446Z,11.48
2023-02-12T00:18:38.631Z,11.75
2023-02-12T00:21:09.806Z,11.13
2023-02-12T00:23:39.029Z,11.52
2023-02-12T00:26:08.913Z,12.10
2023-02-12T00:28:37.280Z,12.00
2023-02-12T00:31:09.849Z,9.88
2023-02-12T00:33:38.254Z,10.65
2023-02-12T00:36:09.716Z,10.90
2023-02-12T00:38:37.749Z,10.50
2023-02-12T00:41:06.288Z,11.93
2023-02-12T00:43:34.346Z,10.02
2023-02-12T00:46:02.573Z,10.85
2023-02-12T00:48:30.736Z,10.07
2023-02-12T00:50:58.834Z,10.27
2023-02-12T00:53:28.263Z,10.48
2023-02-12T00:55:56.801Z,9.95
2023-02-12T00:58:25.471Z,10.00
2023-02-12T01:00:54.304Z,10.93
2023-02-12T01:03:22.679Z,10.88
2023-02-12T01:05:50.786Z,10.77
2023-02-12T01:08:19.044Z,10.50
2023-02-12T01:10:56.464Z,10.07
2023-02-12T01:13:25.627Z,12.20
2023-02-12T01:16:03.440Z,11.75
2023-02-12T01:18:31.519Z,10.82
2023-02-12T01:20:59.603Z,10.90
2023-02-12T01:23:27.672Z,10.75
2023-02-12T01:25:59.552Z,10.63
2023-02-12T01:28:27.667Z,10.45
2023-02-12T01:30:55.845Z,10.98
2023-02-12T01:33:23.940Z,10.07
2023-02-12T01:35:52.203Z,11.45
2023-02-12T01:38:20.277Z,11.10
2023-02-12T01:40:48.384Z,11.90
2023-02-12T01:43:17.818Z,12.48
2023-02-12T01:45:56.866Z,14.50
2023-02-12T01:48:28.934Z,13.32
2023-02-12T01:50:58.100Z,12.63
2023-02-12T01:53:30.851Z,11.65
2023-02-12T01:56:02.463Z,12.95
2023-02-12T01:58:37.081Z,11.93
2023-02-12T02:01:08.243Z,11.70
2023-02-12T02:03:38.843Z,12.13
2023-02-12T02:06:12.854Z,11.85
2023-02-12T02:08:42.543Z,12.63
2023-02-12T02:11:25.038Z,12.68
2023-02-12T02:14:13.543Z,11.43
2023-02-12T02:16:48.220Z,11.15
2023-02-12T02:19:30.854Z,11.50
2023-02-12T02:22:19.704Z,11.25
2023-02-12T02:25:26.555Z,11.45
2023-02-12T02:28:07.393Z,10.80
2023-02-12T02:30:45.555Z,10.50
2023-02-12T02:33:26.766Z,9.75
2023-02-12T02:36:05.599Z,9.80
2023-02-12T02:38:40.571Z,9.95
2023-02-12T02:41:16.403Z,10.13
2023-02-12T02:43:48.966Z,10.57
2023-02-12T02:46:26.481Z,10.38
2023-02-12T02:49:00.505Z,10.10
2023-02-12T02:51:33.072Z,10.82
2023-02-12T02:54:07.194Z,10.02
2023-02-12T02:56:39.122Z,9.82
2023-02-12T02:59:12.492Z,8.65
2023-02-12T03:01:47.992Z,10.48
2023-02-12T03:04:21.099Z,9.60
2023-02-12T03:06:55.733Z,8.90
2023-02-12T03:09:27.795Z,10.93
2023-02-12T03:12:01.456Z,10.95
2023-02-12T03:14:33.412Z,9.57
2023-02-12T03:17:08.065Z,9.38
2023-02-12T03:19:40.884Z,9.52
2023-02-12T03:22:11.758Z,9.80
2023-02-12T03:24:45.570Z,9.80
2023-02-12T03:27:20.380Z,10.07
2023-02-12T03:29:48.761Z,9.45
2023-02-12T03:32:26.534Z,9.90
2023-02-12T03:35:03.759Z,9.73
2023-02-12T03:37:35.936Z,10.13
2023-02-12T03:40:15.550Z,9.38
2023-02-12T03:42:52.149Z,9.40
2023-02-12T03:45:30.371Z,9.80
2023-02-12T03:48:07.496Z,8.57
2023-02-12T03:50:42.610Z,9.65
2023-02-12T03:53:10.790Z,8.77
2023-02-12T03:55:43.732Z,8.98
2023-02-12T03:58:17.864Z,8.65
2023-02-12T04:00:46.373Z,9.20
2023-02-12T04:03:15.895Z,8.93
2023-02-12T04:05:44.042Z,9.52
2023-02-12T04:08:13.780Z,8.75
2023-02-12T04:10:54.274Z,10.35
2023-02-12T04:13:29.841Z,9.48
2023-02-12T04:16:13.550Z,8.20
2023-02-12T04:18:45.835Z,7.82
2023-02-12T04:21:21.252Z,9.50
2023-02-12T04:23:58.756Z,9.23
2023-02-12T04:26:37.323Z,8.25
2023-02-12T04:29:15.616Z,8.02
2023-02-12T04:31:49.053Z,8.60
2023-02-12T04:34:24.648Z,9.50
2023-02-12T04:36:57.200Z,10.27
2023-02-12T04:39:28.834Z,9.90
2023-02-12T04:42:00.104Z,9.48
2023-02-12T04:44:30.839Z,8.38
2023-02-12T04:46:59.495Z,8.00
2023-02-12T04:49:28.976Z,9.20
2023-02-12T04:51:57.244Z,9.00
2023-02-12T04:54:25.661Z,8.95
2023-02-12T04:56:53.757Z,8.90
2023-02-12T04:59:22.058Z,8.63
2023-02-12T05:01:50.231Z,8.32
2023-02-12T05:04:18.938Z,8.90
2023-02-12T05:06:48.676Z,9.35
2023-02-12T05:09:19.196Z,9.25
2023-02-12T05:11:47.839Z,8.30
2023-02-12T05:14:16.242Z,8.93
2023-02-12T05:16:44.426Z,8.50
2023-02-12T05:19:13.194Z,10.02
2023-02-12T05:21:41.269Z,7.57
2023-02-12T05:24:10.995Z,8.20
2023-02-12T05:26:39.129Z,8.35
2023-02-12T05:29:07.182Z,9.50
2023-02-12T05:31:35.618Z,7.55
2023-02-12T05:34:03.746Z,7.82
2023-02-12T05:36:31.862Z,8.10
2023-02-12T05:39:00.980Z,8.55
2023-02-12T05:41:34.872Z,8.55
2023-02-12T05:44:03.103Z,8.10
2023-02-12T05:46:31.459Z,7.72
2023-02-12T05:48:59.514Z,7.13
2023-02-12T05:51:28.858Z,7.55
2023-02-12T05:54:00.111Z,7.00
2023-02-12T05:56:31.891Z,8.30
2023-02-12T05:59:03.386Z,8.32
2023-02-12T06:01:33.489Z,8.43
2023-02-12T06:04:02.131Z,7.65
2023-02-12T06:06:31.096Z,8.35
2023-02-12T06:08:59.626Z,6.95
2023-02-12T06:11:28.383Z,6.85
2023-02-12T06:13:57.757Z,11.60
2023-02-12T06:16:28.484Z,7.85
2023-02-12T06:18:57.897Z,7.57
2023-02-12T06:21:27.574Z,7.55
2023-02-12T06:23:55.705Z,6.80
2023-02-12T06:26:24.133Z,7.95
2023-02-12T06:28:52.354Z,8.02
2023-02-12T06:31:24.616Z,8.60
2023-02-12T06:33:53.891Z,7.65
2023-02-12T06:36:23.005Z,7.40
2023-02-12T06:38:51.859Z,8.10
2023-02-12T06:41:20.294Z,7.22
2023-02-12T06:43:48.418Z,7.78
2023-02-12T06:46:16.785Z,7.40
2023-02-12T06:48:46.202Z,6.88
2023-02-12T06:51:16.451Z,7.25
2023-02-12T06:53:45.159Z,6.95
2023-02-12T06:56:14.239Z,6.75
2023-02-12T06:58:43.825Z,6.80
2023-02-12T07:01:15.057Z,7.22
2023-02-12T07:03:46.065Z,6.88
2023-02-12T07:06:14.726Z,7.85
2023-02-12T07:08:42.783Z,7.57
2023-02-12T07:11:11.027Z,7.00
2023-02-12T07:13:39.863Z,7.60
2023-02-12T07:16:10.119Z,162.35
2023-02-12T07:18:38.912Z,110.30
2023-02-12T07:21:10.590Z,349.73
2023-02-12T07:23:38.824Z,152.98
2023-02-12T07:26:08.474Z,104.22
2023-02-12T07:28:36.844Z,25.50
2023-02-12T07:31:09.387Z,11.23
2023-02-12T07:33:38.016Z,8.20
2023-02-12T07:36:09.834Z,7.70
2023-02-12T07:38:39.870Z,7.45
2023-02-12T07:41:10.847Z,6.13
2023-02-12T07:43:39.555Z,7.68
2023-02-12T07:46:09.719Z,7.18
2023-02-12T07:48:37.790Z,8.48
2023-02-12T07:51:09.242Z,7.05
2023-02-12T07:53:37.677Z,7.45
2023-02-12T07:56:11.382Z,6.57
2023-02-12T07:58:40.621Z,6.05
2023-02-12T08:01:17.931Z,6.82
2023-02-12T08:03:47.055Z,7.50
2023-02-12T08:06:18.937Z,6.55
2023-02-12T08:08:47.446Z,7.65
2023-02-12T08:11:16.634Z,7.40
2023-02-12T08:13:44.954Z,7.90
2023-02-12T08:16:14.924Z,8.30
2023-02-12T08:18:43.805Z,7.23
2023-02-12T08:21:13.734Z,8.70
2023-02-12T08:23:43.505Z,7.63
2023-02-12T08:26:14.434Z,9.53
2023-02-12T08:28:45.026Z,8.87
2023-02-12T08:31:14.948Z,9.50
2023-02-12T08:33:43.266Z,7.97
2023-02-12T08:36:13.090Z,6.90
2023-02-12T08:38:43.774Z,7.40
2023-02-12T08:41:13.986Z,8.77
2023-02-12T08:43:42.862Z,9.03
2023-02-12T08:46:12.956Z,13.70
2023-02-12T08:48:41.984Z,17.53
2023-02-12T08:51:11.986Z,10.93
2023-02-12T08:53:43.307Z,61.00
2023-02-12T08:56:12.526Z,10.83
2023-02-12T08:58:40.718Z,16.13
2023-02-12T09:01:12.215Z,13.73
2023-02-12T09:03:40.521Z,13.30
2023-02-12T09:06:09.275Z,20.43
2023-02-12T09:08:37.812Z,14.10
2023-02-12T09:11:09.070Z,11.97
2023-02-12T09:13:37.951Z,11.50
2023-02-12T09:16:07.189Z,9.23
2023-02-12T09:18:35.890Z,10.30
2023-02-12T09:21:05.977Z,10.23
2023-02-12T09:23:34.322Z,8.90
2023-02-12T09:26:06.243Z,10.70
2023-02-12T09:28:36.184Z,13.93
2023-02-12T09:31:07.303Z,12.77
2023-02-12T09:33:35.555Z,12.87
2023-02-12T09:36:04.345Z,12.20
2023-02-12T09:38:32.775Z,25.50
2023-02-12T09:41:19.940Z,16.47
2023-02-12T09:43:54.789Z,14.50
2023-02-12T09:46:31.034Z,13.83
2023-02-12T09:49:06.296Z,11.10
2023-02-12T09:51:34.739Z,13.80
2023-02-12T09:54:06.173Z,12.90
2023-02-12T09:56:36.498Z,19.00
2023-02-12T09:59:08.817Z,11.93
2023-02-12T10:01:37.336Z,13.03
2023-02-12T10:04:07.216Z,12.90
2023-02-12T10:06:42.715Z,13.37
2023-02-12T10:09:34.298Z,14.80
2023-02-12T10:12:08.241Z,12.63
2023-02-12T10:15:08.684Z,13.30
2023-02-12T10:17:43.396Z,13.37
2023-02-12T10:20:41.677Z,12.67
2023-02-12T10:23:27.165Z,14.73
2023-02-12T10:25:57.944Z,14.70
2023-02-12T10:28:28.552Z,16.40
2023-02-12T10:31:01.146Z,16.63
2023-02-12T10:33:33.006Z,15.47
2023-02-12T10:36:06.250Z,16.20
2023-02-12T10:38:39.375Z,14.70
2023-02-12T10:41:07.468Z,16.00
2023-02-12T10:43:35.588Z,15.73
2023-02-12T10:46:05.332Z,15.00
2023-02-12T10:48:38.198Z,14.97
2023-02-12T10:51:28.976Z,17.40
2023-02-12T10:53:57.180Z,15.97
2023-02-12T10:56:26.520Z,17.60
2023-02-12T10:58:57.220Z,18.07
2023-02-12T11:01:29.559Z,17.70
2023-02-12T11:03:59.724Z,17.87
2023-02-12T11:06:29.870Z,16.83
2023-02-12T11:08:59.155Z,19.13
2023-02-12T11:11:30.734Z,17.53
2023-02-12T11:14:01.902Z,16.67
2023-02-12T11:16:33.793Z,15.87
2023-02-12T11:19:04.790Z,17.07
2023-02-12T11:21:33.473Z,16.53
2023-02-12T11:24:28.108Z,16.53
2023-02-12T11:27:14.117Z,17.13
2023-02-12T11:29:42.458Z,18.10
2023-02-12T11:32:18.148Z,16.60
2023-02-12T11:35:02.426Z,14.77
2023-02-12T11:37:31.659Z,16.63
2023-02-12T11:39:59.872Z,17.97
2023-02-12T11:42:38.555Z,21.33
2023-02-12T11:45:06.984Z,19.47
2023-02-12T11:47:41.611Z,20.10
2023-02-12T11:50:23.123Z,20.73
2023-02-12T11:52:53.165Z,20.83
2023-02-12T11:55:25.138Z,20.90
2023-02-12T11:57:54.356Z,20.50
2023-02-12T12:00:26.202Z,22.83
2023-02-12T12:03:00.443Z,21.97
2023-02-12T12:05:35.451Z,22.50
2023-02-12T12:08:12.624Z,21.50
2023-02-12T12:10:45.399Z,22.10
2023-02-12T12:13:17.417Z,22.80
2023-02-12T12:16:06.224Z,24.50
2023-02-12T12:19:03.733Z,25.33
2023-02-12T12:21:39.022Z,25.63
2023-02-12T12:24:15.013Z,24.57
2023-02-12T12:26:48.749Z,29.37
2023-02-12T12:29:23.526Z,26.20
2023-02-12T12:31:57.172Z,26.40
2023-02-12T12:34:28.914Z,29.30
2023-02-12T12:37:22.679Z,29.57
2023-02-12T12:40:07.521Z,31.37
2023-02-12T12:43:11.405Z,28.37
2023-02-12T12:46:07.192Z,29.73
2023-02-12T12:48:53.777Z,29.63
2023-02-12T12:51:38.425Z,32.60
2023-02-12T12:54:20.240Z,29.30
2023-02-12T12:56:59.638Z,32.20
2023-02-12T12:59:49.526Z,30.77
2023-02-12T13:03:11.799Z,32.07
2023-02-12T13:06:00.000Z,31.80
2023-02-12T13:08:49.091Z,31.63
2023-02-12T13:11:29.963Z,32.50
2023-02-12T13:14:05.869Z,32.70
2023-02-12T13:16:39.425Z,32.37
2023-02-12T13:19:16.831Z,33.33
2023-02-12T13:21:52.523Z,33.77
2023-02-12T13:24:32.945Z,33.03
2023-02-12T13:27:05.631Z,33.07
2023-02-12T13:29:38.233Z,33.73
2023-02-12T13:32:13.093Z,33.50
2023-02-12T13:34:42.871Z,34.80
2023-02-12T13:37:17.243Z,33.70
2023-02-12T13:39:49.678Z,35.70
2023-02-12T13:42:38.536Z,35.43
2023-02-12T13:45:21.100Z,37.37
2023-02-12T13:48:00.461Z,36.83
2023-02-12T13:50:41.567Z,34.87
2023-02-12T13:53:15.253Z,36.60
2023-02-12T13:56:01.780Z,37.37
2023-02-12T13:58:50.149Z,38.67
2023-02-12T14:01:37.814Z,37.30
2023-02-12T14:04:17.177Z,36.70
2023-02-12T14:06:54.451Z,38.27
2023-02-12T14:09:27.930Z,40.50
2023-02-12T14:11:57.819Z,41.67
2023-02-12T14:14:29.118Z,39.67
2023-02-12T14:16:57.231Z,40.90
2023-02-12T14:19:55.599Z,39.40
2023-02-12T14:23:26.816Z,39.37
2023-02-12T14:26:04.177Z,42.50
2023-02-12T14:28:51.027Z,43.90
2023-02-12T14:31:24.842Z,46.33
2023-02-12T14:34:15.356Z,43.20
2023-02-12T14:36:44.966Z,43.83
2023-02-12T14:39:30.382Z,48.77
2023-02-12T14:42:37.021Z,46.50
2023-02-12T14:45:06.899Z,49.57
2023-02-12T14:47:55.166Z,48.30
2023-02-12T14:50:42.544Z,49.30
2023-02-12T14:53:25.030Z,52.30
2023-02-12T14:55:53.850Z,50.47
2023-02-12T14:58:25.466Z,51.90
2023-02-12T15:00:57.262Z,52.10
2023-02-12T15:03:38.408Z,50.83
2023-02-12T15:06:11.515Z,52.10
2023-02-12T15:08:45.851Z,52.13
2023-02-12T15:11:30.368Z,51.07
2023-02-12T15:14:03.454Z,52.63
2023-02-12T15:16:41.169Z,47.43
2023-02-12T15:19:19.688Z,51.60
2023-02-12T15:21:48.281Z,52.53
2023-02-12T15:24:23.770Z,51.80
2023-02-12T15:26:53.547Z,49.70
2023-02-12T15:29:25.154Z,52.37
2023-02-12T15:31:57.450Z,52.40
2023-02-12T15:34:28.718Z,50.50
2023-02-12T15:36:59.465Z,49.40
2023-02-12T15:39:28.170Z,45.80
2023-02-12T15:41:56.625Z,48.17
2023-02-12T15:44:27.835Z,48.67
2023-02-12T15:47:03.818Z,48.20
2023-02-12T15:49:36.746Z,53.17
2023-02-12T15:52:09.622Z,52.43
2023-02-12T15:54:39.108Z,50.67
2023-02-12T15:57:13.172Z,50.53
2023-02-12T15:59:42.423Z,53.80
2023-02-12T16:02:20.660Z,53.03
2023-02-12T16:04:49.162Z,52.60
2023-02-12T16:07:18.465Z,51.40
2023-02-12T16:09:47.841Z,53.90
2023-02-12T16:12:20.400Z,54.33
2023-02-12T16:14:51.417Z,51.87
2023-02-12T16:17:28.860Z,55.60
2023-02-12T16:19:59.058Z,57.23
2023-02-12T16:22:33.790Z,57.57
2023-02-12T16:25:03.153Z,58.00
2023-02-12T16:27:34.311Z,54.30
2023-02-12T16:30:05.034Z,56.23
2023-02-12T16:32:41.020Z,55.53
2023-02-12T16:35:28.131Z,53.90
2023-02-12T16:38:01.455Z,55.03
2023-02-12T16:40:33.389Z,55.00
2023-02-12T16:43:07.740Z,55.73
2023-02-12T16:45:45.220Z,54.70
2023-02-12T16:48:25.148Z,54.30
2023-02-12T16:50:55.858Z,52.43
2023-02-12T16:53:37.398Z,56.33
2023-02-12T16:56:06.877Z,52.10
2023-02-12T16:58:34.916Z,54.73
2023-02-12T17:01:06.467Z,52.87
2023-02-12T17:03:36.666Z,55.60
2023-02-12T17:06:04.929Z,53.57
2023-02-12T17:08:33.138Z,57.17
2023-02-12T17:11:01.247Z,53.20
2023-02-12T17:13:29.262Z,53.07
2023-02-12T17:15:59.439Z,54.27
2023-02-12T17:18:28.390Z,55.53
2023-02-12T17:21:00.019Z,52.03
2023-02-12T17:23:28.729Z,53.40
2023-02-12T17:25:57.178Z,55.57
2023-02-12T17:28:26.160Z,58.90
2023-02-12T17:30:55.533Z,53.87
2023-02-12T17:33:23.805Z,57.80
2023-02-12T17:35:51.929Z,53.60
2023-02-12T17:38:21.413Z,55.97
2023-02-12T17:40:49.553Z,58.57
2023-02-12T17:43:17.813Z,57.13
2023-02-12T17:45:45.989Z,57.83
2023-02-12T17:48:15.306Z,54.67
2023-02-12T17:50:44.523Z,56.73
2023-02-12T17:53:13.059Z,56.00
2023-02-12T17:55:43.102Z,56.63
2023-02-12T17:58:11.226Z,59.80
2023-02-12T18:00:41.888Z,57.63
2023-02-12T18:03:10.020Z,57.33
2023-02-12T18:05:41.987Z,57.37
2023-02-12T18:08:10.740Z,55.27
2023-02-12T18:10:42.883Z,58.23
2023-02-12T18:13:11.009Z,57.13
2023-02-12T18:15:41.552Z,55.30
2023-02-12T18:18:10.092Z,53.10
2023-02-12T18:20:40.343Z,52.73
2023-02-12T18:23:08.969Z,49.70
2023-02-12T18:25:42.533Z,56.47
2023-02-12T18:28:11.719Z,56.07
2023-02-12T18:30:42.949Z,52.13
2023-02-12T18:33:12.916Z,56.23
2023-02-12T18:35:41.808Z,51.20
2023-02-12T18:38:10.548Z,54.00
2023-02-12T18:40:42.395Z,53.67
2023-02-12T18:43:10.418Z,53.97
2023-02-12T18:45:40.426Z,53.00
2023-02-12T18:48:09.277Z,55.97
2023-02-12T18:50:37.950Z,50.20
2023-02-12T18:53:06.069Z,50.57
2023-02-12T18:55:34.210Z,52.80
2023-02-12T18:58:03.634Z,51.80
2023-02-12T19:00:31.723Z,47.83
2023-02-12T19:02:59.803Z,52.67
2023-02-12T19:05:27.972Z,50.17
2023-02-12T19:07:56.707Z,50.13
2023-02-12T19:10:24.821Z,48.73
2023-02-12T19:12:53.046Z,48.43
2023-02-12T19:15:22.795Z,52.70
2023-02-12T19:17:51.148Z,50.67
2023-02-12T19:20:19.711Z,51.07
2023-02-12T19:22:47.780Z,49.90
2023-02-12T19:25:15.993Z,49.90
2023-02-12T19:27:44.051Z,48.63
2023-02-12T19:30:13.247Z,50.73
2023-02-12T19:32:42.785Z,51.57
2023-02-12T19:35:10.936Z,50.50
2023-02-12T19:37:39.045Z,49.33
2023-02-12T19:40:08.437Z,50.33
2023-02-12T19:42:36.530Z,51.80
2023-02-12T19:45:05.062Z,52.00
2023-02-12T19:47:33.123Z,50.50
2023-02-12T19:50:02.551Z,52.83
2023-02-12T19:52:30.798Z,49.50
2023-02-12T19:54:59.180Z,48.67
2023-02-12T19:57:27.490Z,51.80
2023-02-12T19:59:55.519Z,52.00
2023-02-12T20:02:23.665Z,52.87
2023-02-12T20:04:51.743Z,52.00
2023-02-12T20:07:21.176Z,48.17
2023-02-12T20:09:52.143Z,52.27
2023-02-12T20:12:20.230Z,53.83
2023-02-12T20:14:48.253Z,54.57
2023-02-12T20:17:16.429Z,51.30
2023-02-12T20:19:44.475Z,53.77
2023-02-12T20:22:12.517Z,53.80
2023-02-12T20:24:41.942Z,52.87
2023-02-12T20:27:11.091Z,54.27
2023-02-12T20:29:39.507Z,55.40
2023-02-12T20:32:08.036Z,54.67
2023-02-12T20:34:49.043Z,52.07
2023-02-12T20:37:18.913Z,55.03
2023-02-12T20:39:48.448Z,55.40
2023-02-12T20:42:16.508Z,57.97
2023-02-12T20:44:44.582Z,55.70
2023-02-12T20:47:12.744Z,55.80
2023-02-12T20:49:40.815Z,58.33
2023-02-12T20:52:09.118Z,54.70
2023-02-12T20:54:39.126Z,56.80
2023-02-12T20:57:08.747Z,55.60
2023-02-12T20:59:36.793Z,58.55
2023-02-12T21:02:05.228Z,56.00
2023-02-12T21:04:33.279Z,55.33
2023-02-12T21:07:01.553Z,55.88
2023-02-12T21:09:29.798Z,58.67
2023-02-12T21:11:59.058Z,52.67
2023-02-12T21:14:28.450Z,54.05
2023-02-12T21:16:57.692Z,56.08
2023-02-12T21:19:26.636Z,53.42
2023-02-12T21:21:55.042Z,50.05
2023-02-12T21:24:25.867Z,53.20
2023-02-12T21:26:55.943Z,52.17
2023-02-12T21:29:26.621Z,51.97
2023-02-12T21:31:56.214Z,55.65
2023-02-12T21:34:25.057Z,55.05
2023-02-12T21:36:55.273Z,56.13
2023-02-12T21:39:26.219Z,51.47
2023-02-12T21:41:56.211Z,53.17
2023-02-12T21:44:25.365Z,54.67
2023-02-12T21:46:55.206Z,50.40
2023-02-12T21:49:27.719Z,55.05
2023-02-12T21:51:58.461Z,51.10
2023-02-12T21:54:27.890Z,52.90
2023-02-12T21:56:56.493Z,48.97
2023-02-12T21:59:26.416Z,58.30
2023-02-12T22:01:58.585Z,54.10
2023-02-12T22:04:27.571Z,56.08
2023-02-12T22:06:56.555Z,52.05
2023-02-12T22:09:24.789Z,55.50
2023-02-12T22:11:53.184Z,55.22
2023-02-12T22:14:22.052Z,53.97
2023-02-12T22:16:50.256Z,51.42
2023-02-12T22:19:20.045Z,53.70
2023-02-12T22:21:51.718Z,51.30
2023-02-12T22:24:20.339Z,49.92
2023-02-12T22:26:48.404Z,50.97
2023-02-12T22:29:17.269Z,53.03
2023-02-12T22:31:46.913Z,47.28
2023-02-12T22:34:16.805Z,53.78
2023-02-12T22:36:46.634Z,50.30
2023-02-12T22:39:17.472Z,50.05
2023-02-12T22:41:46.064Z,48.83
2023-02-12T22:44:15.301Z,51.83
2023-02-12T22:46:44.263Z,51.55
2023-02-12T22:49:12.494Z,53.20
2023-02-12T22:51:41.031Z,50.47
2023-02-12T22:54:14.462Z,50.10
2023-02-12T22:56:42.888Z,49.05
2023-02-12T22:59:12.085Z,51.60
2023-02-12T23:01:40.322Z,48.70
2023-02-12T23:04:08.644Z,49.60
2023-02-12T23:06:36.798Z,49.90
2023-02-12T23:09:05.914Z,49.05
2023-02-12T23:11:35.622Z,51.05
2023-02-12T23:14:03.669Z,50.95
2023-02-12T23:16:31.983Z,52.55
2023-02-12T23:19:02.034Z,50.20
2023-02-12T23:21:31.235Z,48.08
2023-02-12T23:24:00.196Z,45.65
2023-02-12T23:26:28.862Z,48.80
2023-02-12T23:28:59.096Z,50.80
2023-02-12T23:31:27.374Z,49.75
2023-02-12T23:33:55.475Z,47.08
2023-02-12T23:36:23.574Z,48.13
2023-02-12T23:38:51.586Z,46.45
2023-02-12T23:41:19.693Z,46.35
2023-02-12T23:43:47.886Z,46.22
2023-02-12T23:46:17.484Z,47.28
2023-02-12T23:48:45.604Z,46.88
2023-02-12T23:51:13.671Z,50.55
2023-02-12T23:53:41.744Z,49.67
2023-02-12T23:56:10.053Z,48.35
2023-02-12T23:58:38.214Z,47.90
